View Sortable Currents For Network
ASOSAWOSCoCoRaHSCOOPDCPISUSM
SchoolNetOtherSCANMy FavoritesBy StateRWIS
RWIS SurfaceRWIS TrafficRWIS SoilBy NWS WFOUSCRN

Current AWOS Conditions

** This page will automatically refresh every five minutes.
Sorted by: (Station ID)     Click on a column to sort it.

Add ID: Name: Ob Time   Wind [knots]   Rainfall
Temp (Hi / Lo) DewP Feels RH% Dir Speed Peak Gust
@ Time
Alti Vsby Hour Today
VTIVINTON02:55 PM 41(41/19) 15 34 34 180 10G1616 @ 01:55 PM 29.89 10 0
TVKCenterville02:35 PM 43(45/16) 18 37 36 200 1011 @ 10:55 AM 29.93 10 0
TNUNEWTON MUNI02:55 PM 45(45/18) 18 39 34 200 10G1717 @ 02:55 PM 29.89 10 0
SLBStorm Lake02:55 PM 52(52/25) 28 45 39 270 1521 @ 02:15 PM 29.83 10 0
SHLSHELDON02:55 PM 57(57/27) 32 280 2224 @ 02:35 PM 29.79 10 0
SDASHENANDOAH MUNI02:55 PM 50(50/25) 28 47 42 250 713 @ 11:55 AM 29.95 10 0
RDKRED OAK02:55 PM 48(48/23) 28 44 46 230 8G1317 @ 10:15 AM 29.93 10 0
PROPerry03:35 PM 47(48/19) 24 41 40 240 1116 @ 11:55 AM 29.87 10 0
PEAPELLA02:55 PM 46(46/19) 17 40 31 200 1115 @ 10:15 AM 29.91 10 0
OXVKnoxville02:55 PM 46(46/19) 19 41 34 200 10G1518 @ 12:15 PM 29.89 10 0
ORCOrange City02:55 PM 57(57/27) 34 52 42 290 26G3030 @ 02:55 PM 29.83 10 0
OOAOskaloosa02:55 PM 43(43/16) 18 37 36 190 1015 @ 12:55 PM 29.92 10 0
MXOMONTICELLO MUNI02:55 PM 41(43/16) 12 35 30 190 810 @ 10:35 AM 29.9 10 0
MUTMUSCATINE02:55 PM 43(43/16) 18 38 36 200 812 @ 01:15 PM 29.95 10 0
MPZMOUNT PLEASANT02:35 PM 43(43/19) 21 38 41 200 78 @ 10:35 AM 29.95 10 0
LRJLE MARS02:55 PM 59(59/25) 30 53 33 290 18G2424 @ 02:55 PM 29.84 10 0
IKVANKENY02:55 PM 48(48/21) 25 40 @ 06:00 PM 29.9 10 0
IIBINDEPENDENCE02:55 PM 43(43/17) 18 36 36 200 1318 @ 02:15 PM 29.87 10 0
IFAIowa Falls02:55 PM 46(46/21) 24 39 42 200 1419 @ 09:55 AM 29.86 10 0
ICLCLARINDA02:55 PM 48(48/19) 27 43 44 240 916 @ 11:35 AM 29.96 10 0
I75Osceola02:55 PM 48(48/21) 24 43 39 210 11G1416 @ 01:55 PM 29.9 7 0
HPTHampton02:55 PM 45(45/25) 25 38 45 210 13G1920 @ 12:15 PM 29.84 10 0
HNRHARLAN02:55 PM M(0/0) M M M @ 06:00 PM 0
GGIGrinnell02:55 PM 44(44/19) 17 38 33 200 1116 @ 11:35 AM 29.9 10 0
FXYForest City02:55 PM 45(45/23) 28 39 51 210 10G1519 @ 09:55 AM 29.8 10 0
FSWFORT MADISON02:55 PM 39(39/19) 21 33 48 200 88 @ 02:55 PM 29.97 10 0
FODFORT DODGE02:56 PM 47(47/26) 28 41 47 210 1317 @ 10:30 AM 29.83 10 0 0
FFLFAIRFIELD02:55 PM 43(43/16) 18 36 36 190 1112 @ 11:55 AM 29.92 10 0
EOKKEOKUK MUNI02:55 PM 41(41/21) 19 35 41 190 813 @ 01:35 PM 29.96 10 0
EBSWebster City02:35 PM 46(46/21) 25 40 43 230 1320 @ 11:35 AM 29.83 10 0
DNSDENISON02:55 PM 50(50/27) 28 47 42 230 7G1318 @ 12:15 AM 29.88 10 0
DEHDECORAH02:55 PM 41(41/21) 16 34 36 180 11G1720 @ 10:55 AM 29.82 10 0
CWICLINTON02:56 PM 39(39/16) 21 33 48 200 78 @ 01:20 AM 29.95 10 0
CSQCRESTON02:55 PM 46(48/21) 25 40 43 230 1217 @ 01:55 PM 29.91 10 0
CNCCHARITON02:55 PM 46(46/19) 23 40 40 210 1118 @ 09:35 AM 29.9 10 0
CKPCherokee02:55 PM 55(55/26) 29 49 37 270 11G1717 @ 02:55 PM 29.84 10 0
CINCARROLL02:55 PM 50(50/25) 27 45 41 230 12G1718 @ 01:55 PM 29.85 10 0
CCYCHARLES CITY02:55 PM 43(43/21) 18 35 36 190 1522 @ 12:15 PM 29.83 10 0
CBFCOUNCIL BLUFFS02:55 PM 48(48/23) 28 43 46 230 915 @ 09:35 AM 29.9 10 0
CAVCLARION02:55 PM 46(46/23) 25 40 43 210 13G1821 @ 01:15 PM 29.82 10 0
BNWBOONE MUNI02:55 PM 48(48/21) 27 43 44 240 1020 @ 12:15 PM 29.85 10 0
AXAALGONA02:55 PM 48(48/25) 28 42 46 220 13G1822 @ 03:35 AM 29.8 10 0
AWGWASHINGTON02:55 PM 43(43/14) 16 36 33 190 1212 @ 02:55 PM 29.93 10 0
AIOATLANTIC02:55 PM 48(48/25) 28 43 46 230 1116 @ 10:15 AM 29.89 10 0
ADUAUDUBON02:55 PM 48(48/25) 27 43 44 240 1018 @ 08:55 AM 29.89 10 0